createdAt,value
2023-06-30T00:00:28.972Z,87.84
2023-06-30T00:01:28.992Z,87.88
2023-06-30T00:02:29.100Z,87.98
2023-06-30T00:03:29.167Z,87.78
2023-06-30T00:04:29.144Z,87.88
2023-06-30T00:05:28.950Z,87.78
2023-06-30T00:06:28.901Z,88.09
2023-06-30T00:07:28.945Z,88.29
2023-06-30T00:08:28.891Z,88.29
2023-06-30T00:09:28.873Z,87.78
2023-06-30T00:10:28.857Z,88.32
2023-06-30T00:11:28.863Z,88.73
2023-06-30T00:12:28.837Z,88.83
2023-06-30T00:13:28.848Z,88.53
2023-06-30T00:14:28.823Z,88.63
2023-06-30T00:15:28.895Z,89.03
2023-06-30T00:16:28.928Z,88.93
2023-06-30T00:17:28.806Z,89.03
2023-06-30T00:18:28.876Z,89.23
2023-06-30T00:19:28.768Z,89.27
2023-06-30T00:20:28.775Z,89.53
2023-06-30T00:21:28.760Z,89.58
2023-06-30T00:22:28.749Z,89.37
2023-06-30T00:23:28.730Z,89.78
2023-06-30T00:24:28.727Z,90.58
2023-06-30T00:25:28.703Z,90.17
2023-06-30T00:26:28.696Z,90.68
2023-06-30T00:27:28.675Z,90.78
2023-06-30T00:28:28.654Z,91.22
2023-06-30T00:29:28.646Z,91.32
2023-06-30T00:30:28.648Z,91.63
2023-06-30T00:31:28.685Z,92.23
2023-06-30T00:32:28.654Z,91.52
2023-06-30T00:33:28.604Z,91.72
2023-06-30T00:34:28.622Z,92.33
2023-06-30T00:35:28.585Z,92.33
2023-06-30T00:36:28.573Z,91.93
2023-06-30T00:37:28.629Z,91.93
2023-06-30T00:38:28.565Z,92.37
2023-06-30T00:39:28.542Z,92.83
2023-06-30T00:40:28.526Z,92.83
2023-06-30T00:41:28.550Z,92.57
2023-06-30T00:42:28.514Z,92.37
2023-06-30T00:43:28.496Z,92.57
2023-06-30T00:44:28.489Z,92.77
2023-06-30T00:45:28.495Z,92.88
2023-06-30T00:46:28.492Z,92.97
2023-06-30T00:47:28.479Z,93.28
2023-06-30T00:48:28.435Z,92.88
2023-06-30T00:49:28.431Z,93.02
2023-06-30T00:50:28.506Z,92.82
2023-06-30T00:51:28.450Z,93.12
2023-06-30T00:52:28.393Z,93.22
2023-06-30T00:53:28.399Z,93.12
2023-06-30T00:54:28.476Z,93.57
2023-06-30T00:55:28.373Z,93.07
2023-06-30T00:56:28.348Z,92.86
2023-06-30T00:57:28.387Z,93.16
2023-06-30T00:58:28.331Z,94.27
2023-06-30T00:59:28.332Z,93.61
2023-06-30T01:00:28.302Z,94.01
2023-06-30T01:01:28.356Z,93.66
2023-06-30T01:02:28.387Z,94.32
2023-06-30T01:03:28.584Z,94.42
2023-06-30T01:04:28.321Z,94.52
2023-06-30T01:05:28.276Z,94.72
2023-06-30T01:06:28.264Z,94.76
2023-06-30T01:07:28.303Z,94.42
2023-06-30T01:08:28.218Z,94.32
2023-06-30T01:09:28.212Z,94.26
2023-06-30T01:10:28.209Z,94.92
2023-06-30T01:11:28.213Z,94.62
2023-06-30T01:12:28.174Z,94.82
2023-06-30T01:13:28.185Z,94.72
2023-06-30T01:14:28.150Z,95.02
2023-06-30T01:15:28.148Z,94.52
2023-06-30T01:16:28.178Z,94.36
2023-06-30T01:17:28.158Z,94.62
2023-06-30T01:18:28.146Z,94.26
2023-06-30T01:19:28.113Z,94.87
2023-06-30T01:20:28.083Z,94.67
2023-06-30T01:21:28.077Z,94.52
2023-06-30T01:22:28.116Z,94.87
2023-06-30T01:23:28.060Z,93.76
2023-06-30T01:24:28.042Z,93.96
2023-06-30T01:25:28.032Z,94.16
2023-06-30T01:26:28.091Z,93.19
2023-06-30T01:27:28.057Z,93.35
2023-06-30T01:28:27.997Z,92.99
2023-06-30T01:29:27.988Z,93.10
2023-06-30T01:30:28.000Z,92.59
2023-06-30T01:31:27.994Z,93.30
2023-06-30T01:32:27.993Z,93.10
2023-06-30T01:33:27.948Z,93.04
2023-06-30T01:34:27.929Z,93.24
2023-06-30T01:35:27.920Z,93.24
2023-06-30T01:36:27.907Z,93.14
2023-06-30T01:37:27.923Z,93.24
2023-06-30T01:38:27.908Z,93.04
2023-06-30T01:39:27.880Z,93.24
2023-06-30T01:40:27.869Z,93.04
2023-06-30T01:41:27.855Z,93.89
2023-06-30T01:42:27.869Z,94.25
2023-06-30T01:43:27.828Z,94.49
2023-06-30T01:44:27.827Z,93.24
2023-06-30T01:45:27.831Z,94.39
2023-06-30T01:46:27.834Z,94.29
2023-06-30T01:47:27.838Z,93.34
2023-06-30T01:48:27.776Z,93.38
2023-06-30T01:49:27.762Z,93.38
2023-06-30T01:50:27.761Z,93.08
2023-06-30T01:51:27.743Z,93.29
2023-06-30T01:52:27.764Z,92.88
2023-06-30T01:53:27.727Z,93.33
2023-06-30T01:54:27.738Z,92.98
2023-06-30T01:55:27.699Z,92.62
2023-06-30T01:56:27.716Z,92.12
2023-06-30T01:57:27.694Z,93.23
2023-06-30T01:58:27.683Z,92.72
2023-06-30T01:59:27.673Z,93.53
2023-06-30T02:00:27.671Z,93.02
2023-06-30T02:01:27.679Z,93.33
2023-06-30T02:02:27.720Z,93.13
2023-06-30T02:03:27.690Z,92.93
2023-06-30T02:04:27.605Z,92.82
2023-06-30T02:05:27.587Z,93.23
2023-06-30T02:06:27.581Z,93.43
2023-06-30T02:07:27.600Z,93.02
2023-06-30T02:08:27.584Z,93.23
2023-06-30T02:09:38.740Z,92.62
2023-06-30T02:10:28.556Z,92.47
2023-06-30T02:11:27.515Z,92.12
2023-06-30T02:12:27.535Z,92.16
2023-06-30T02:13:27.507Z,92.12
2023-06-30T02:14:27.486Z,92.02
2023-06-30T02:15:27.474Z,92.42
2023-06-30T02:16:27.487Z,92.93
2023-06-30T02:17:27.492Z,92.42
2023-06-30T02:18:27.445Z,92.52
2023-06-30T02:19:27.434Z,92.82
2023-06-30T02:20:27.432Z,92.22
2023-06-30T02:21:27.403Z,91.71
2023-06-30T02:22:27.416Z,92.22
2023-06-30T02:23:27.388Z,92.26
2023-06-30T02:24:27.379Z,92.82
2023-06-30T02:25:27.370Z,92.32
2023-06-30T02:26:27.435Z,92.12
2023-06-30T02:27:28.228Z,92.32
2023-06-30T02:28:27.344Z,92.32
2023-06-30T02:29:27.319Z,92.32
2023-06-30T02:30:27.318Z,92.66
2023-06-30T02:31:27.331Z,92.42
2023-06-30T02:32:27.357Z,92.26
2023-06-30T02:33:27.274Z,92.86
2023-06-30T02:34:27.264Z,92.77
2023-06-30T02:35:27.270Z,92.16
2023-06-30T02:36:27.240Z,92.66
2023-06-30T02:37:27.236Z,92.82
2023-06-30T02:38:27.257Z,92.57
2023-06-30T02:39:27.214Z,92.42
2023-06-30T02:40:27.211Z,92.57
2023-06-30T02:41:27.190Z,93.27
2023-06-30T02:42:27.242Z,92.77
2023-06-30T02:43:27.158Z,92.77
2023-06-30T02:44:27.155Z,93.27
2023-06-30T02:45:27.156Z,93.37
2023-06-30T02:46:27.211Z,92.22
2023-06-30T02:47:27.248Z,92.66
2023-06-30T02:48:27.111Z,92.77
2023-06-30T02:49:27.094Z,93.07
2023-06-30T02:50:27.130Z,93.07
2023-06-30T02:51:27.072Z,92.72
2023-06-30T02:52:27.102Z,93.17
2023-06-30T02:53:27.048Z,93.27
2023-06-30T02:54:27.052Z,93.07
2023-06-30T02:55:27.024Z,93.17
2023-06-30T02:56:27.046Z,93.48
2023-06-30T02:57:27.024Z,93.17
2023-06-30T02:58:27.275Z,93.27
2023-06-30T02:59:27.102Z,93.37
2023-06-30T03:00:27.048Z,93.17
2023-06-30T03:01:27.134Z,93.92
2023-06-30T03:02:27.258Z,93.57
2023-06-30T03:03:27.096Z,93.57
2023-06-30T03:04:27.028Z,94.08
2023-06-30T03:05:26.992Z,93.93
2023-06-30T03:06:26.921Z,93.93
2023-06-30T03:07:26.928Z,93.84
2023-06-30T03:08:26.881Z,94.38
2023-06-30T03:09:26.863Z,94.28
2023-06-30T03:10:26.862Z,93.43
2023-06-30T03:11:26.891Z,94.04
2023-06-30T03:12:26.868Z,94.34
2023-06-30T03:13:26.819Z,94.28
2023-06-30T03:14:26.832Z,94.08
2023-06-30T03:15:26.808Z,93.57
2023-06-30T03:16:26.841Z,93.57
2023-06-30T03:17:26.878Z,94.34
2023-06-30T03:18:26.766Z,94.28
2023-06-30T03:19:26.754Z,94.08
2023-06-30T03:20:26.751Z,93.98
2023-06-30T03:21:26.737Z,94.04
2023-06-30T03:22:26.744Z,94.48
2023-06-30T03:23:26.715Z,93.88
2023-06-30T03:24:26.705Z,93.88
2023-06-30T03:25:26.688Z,94.18
2023-06-30T03:26:26.674Z,94.28
2023-06-30T03:27:26.678Z,93.98
2023-06-30T03:28:26.668Z,94.28
2023-06-30T03:29:26.638Z,94.18
2023-06-30T03:30:26.678Z,93.48
2023-06-30T03:31:26.643Z,94.68
2023-06-30T03:32:26.697Z,93.98
2023-06-30T03:33:26.596Z,93.37
2023-06-30T03:34:26.593Z,93.37
2023-06-30T03:35:26.597Z,93.17
2023-06-30T03:36:26.567Z,93.27
2023-06-30T03:37:26.567Z,93.17
2023-06-30T03:38:26.595Z,93.77
2023-06-30T03:39:26.542Z,93.77
2023-06-30T03:40:26.544Z,93.77
2023-06-30T03:41:26.506Z,93.72
2023-06-30T03:42:26.510Z,93.77
2023-06-30T03:43:26.488Z,93.88
2023-06-30T03:44:26.492Z,93.41
2023-06-30T03:45:26.460Z,94.63
2023-06-30T03:46:26.510Z,93.68
2023-06-30T03:47:26.509Z,93.98
2023-06-30T03:48:26.433Z,93.77
2023-06-30T03:49:26.476Z,93.48
2023-06-30T03:50:26.424Z,93.92
2023-06-30T03:51:26.409Z,93.32
2023-06-30T03:52:26.388Z,93.21
2023-06-30T03:53:26.394Z,93.17
2023-06-30T03:54:26.372Z,93.82
2023-06-30T03:55:26.346Z,93.17
2023-06-30T03:56:26.340Z,93.32
2023-06-30T03:57:26.330Z,93.62
2023-06-30T03:58:26.374Z,92.91
2023-06-30T03:59:26.300Z,93.72
2023-06-30T04:00:26.306Z,93.88
2023-06-30T04:01:26.278Z,93.88
2023-06-30T04:02:26.389Z,93.37
2023-06-30T04:03:27.900Z,93.21
2023-06-30T04:04:26.323Z,93.48
2023-06-30T04:05:26.239Z,93.52
2023-06-30T04:06:26.229Z,93.21
2023-06-30T04:07:26.293Z,92.86
2023-06-30T04:08:26.344Z,93.27
2023-06-30T04:09:26.232Z,93.12
2023-06-30T04:10:26.184Z,93.52
2023-06-30T04:11:26.174Z,93.57
2023-06-30T04:12:26.165Z,93.37
2023-06-30T04:13:26.157Z,93.17
2023-06-30T04:14:26.141Z,93.07
2023-06-30T04:15:26.141Z,93.07
2023-06-30T04:16:26.147Z,93.07
2023-06-30T04:17:26.134Z,92.86
2023-06-30T04:18:26.115Z,93.27
2023-06-30T04:19:26.090Z,92.41
2023-06-30T04:20:26.068Z,92.57
2023-06-30T04:21:26.069Z,92.46
2023-06-30T04:22:26.051Z,92.36
2023-06-30T04:23:26.050Z,92.61
2023-06-30T04:24:26.776Z,92.16
2023-06-30T04:25:26.012Z,92.66
2023-06-30T04:26:26.030Z,92.86
2023-06-30T04:27:25.995Z,92.41
2023-06-30T04:28:26.032Z,92.26
2023-06-30T04:29:25.968Z,92.10
2023-06-30T04:30:25.974Z,92.16
2023-06-30T04:31:25.991Z,92.36
2023-06-30T04:32:25.967Z,91.96
2023-06-30T04:33:25.938Z,92.26
2023-06-30T04:34:25.938Z,92.86
2023-06-30T04:35:25.970Z,92.36
2023-06-30T04:36:25.917Z,92.66
2023-06-30T04:37:25.880Z,92.26
2023-06-30T04:38:25.926Z,92.77
2023-06-30T04:39:25.880Z,92.86
2023-06-30T04:40:25.869Z,92.46
2023-06-30T04:41:25.842Z,92.26
2023-06-30T04:42:25.847Z,92.16
2023-06-30T04:43:25.864Z,92.16
2023-06-30T04:44:25.808Z,91.66
2023-06-30T04:45:25.791Z,92.26
2023-06-30T04:46:25.847Z,91.86
2023-06-30T04:47:25.821Z,91.66
2023-06-30T04:48:25.840Z,91.96
2023-06-30T04:49:25.757Z,92.36
2023-06-30T04:50:25.761Z,92.46
2023-06-30T04:51:25.735Z,92.12
2023-06-30T04:52:25.718Z,91.91
2023-06-30T04:53:25.725Z,91.91
2023-06-30T04:54:25.701Z,91.96
2023-06-30T04:55:25.774Z,91.61
2023-06-30T04:56:25.677Z,91.15
2023-06-30T04:57:25.659Z,90.75
2023-06-30T04:58:25.697Z,91.05
2023-06-30T04:59:25.643Z,91.15
2023-06-30T05:00:25.633Z,91.21
2023-06-30T05:01:25.647Z,91.35
2023-06-30T05:02:25.640Z,91.15
2023-06-30T05:03:25.656Z,91.11
2023-06-30T05:04:25.592Z,90.70
2023-06-30T05:05:25.582Z,90.85
2023-06-30T05:06:25.588Z,90.55
2023-06-30T05:07:25.637Z,90.81
2023-06-30T05:08:25.565Z,90.81
2023-06-30T05:09:25.523Z,90.34
2023-06-30T05:10:25.517Z,89.94
2023-06-30T05:11:25.498Z,90.30
2023-06-30T05:12:25.514Z,90.04
2023-06-30T05:13:25.473Z,90.81
2023-06-30T05:14:25.494Z,90.81
2023-06-30T05:15:25.468Z,90.61
2023-06-30T05:16:25.552Z,90.20
2023-06-30T05:17:25.573Z,90.00
2023-06-30T05:18:25.466Z,90.10
2023-06-30T05:19:25.418Z,90.20
2023-06-30T05:20:25.418Z,89.95
2023-06-30T05:21:25.386Z,90.10
2023-06-30T05:22:25.400Z,90.10
2023-06-30T05:23:25.382Z,89.86
2023-06-30T05:24:25.354Z,90.20
2023-06-30T05:25:25.384Z,90.36
2023-06-30T05:26:25.335Z,90.06
2023-06-30T05:27:25.325Z,89.86
2023-06-30T05:28:25.346Z,89.45
2023-06-30T05:29:26.131Z,89.55
2023-06-30T05:30:25.292Z,89.05
2023-06-30T05:31:25.294Z,89.65
2023-06-30T05:32:25.294Z,89.05
2023-06-30T05:33:25.266Z,89.75
2023-06-30T05:34:25.251Z,89.70
2023-06-30T05:35:25.227Z,90.16
2023-06-30T05:36:25.225Z,89.70
2023-06-30T05:37:25.216Z,89.15
2023-06-30T05:38:25.269Z,89.45
2023-06-30T05:39:25.187Z,89.65
2023-06-30T05:40:25.175Z,89.55
2023-06-30T05:41:25.165Z,89.39
2023-06-30T05:42:25.149Z,89.39
2023-06-30T05:43:25.160Z,90.10
2023-06-30T05:44:25.172Z,90.10
2023-06-30T05:45:25.117Z,90.36
2023-06-30T05:46:25.111Z,89.75
2023-06-30T05:47:25.122Z,89.25
2023-06-30T05:48:25.122Z,89.95
2023-06-30T05:49:25.079Z,89.95
2023-06-30T05:50:25.058Z,90.11
2023-06-30T05:51:25.049Z,89.61
2023-06-30T05:52:25.033Z,88.40
2023-06-30T05:53:25.041Z,88.34
2023-06-30T05:54:25.037Z,88.10
2023-06-30T05:55:25.022Z,88.00
2023-06-30T05:56:24.993Z,87.49
2023-06-30T05:57:24.982Z,87.03
2023-06-30T05:58:25.016Z,87.49
2023-06-30T05:59:24.964Z,87.19
2023-06-30T06:00:24.953Z,87.40
2023-06-30T06:01:24.939Z,87.19
2023-06-30T06:02:25.192Z,86.99
2023-06-30T06:03:25.055Z,86.89
2023-06-30T06:04:25.087Z,87.60
2023-06-30T06:05:25.134Z,88.10
2023-06-30T06:06:24.875Z,86.79
2023-06-30T06:07:24.901Z,87.09
2023-06-30T06:08:24.857Z,86.18
2023-06-30T06:09:24.848Z,85.58
2023-06-30T06:10:24.852Z,85.48
2023-06-30T06:11:24.840Z,86.18
2023-06-30T06:12:24.810Z,85.28
2023-06-30T06:13:24.894Z,85.78
2023-06-30T06:14:24.787Z,85.94
2023-06-30T06:15:24.785Z,85.88
2023-06-30T06:16:24.789Z,85.98
2023-06-30T06:17:24.824Z,85.98
2023-06-30T06:18:24.745Z,85.48
2023-06-30T06:19:24.792Z,85.48
2023-06-30T06:20:24.733Z,85.64
2023-06-30T06:21:24.719Z,85.28
2023-06-30T06:22:24.704Z,86.08
2023-06-30T06:23:24.736Z,85.58
2023-06-30T06:24:24.702Z,85.68
2023-06-30T06:25:24.672Z,84.77
2023-06-30T06:26:24.682Z,84.37
2023-06-30T06:27:24.646Z,84.47
2023-06-30T06:28:24.636Z,84.17
2023-06-30T06:29:24.638Z,84.67
2023-06-30T06:30:24.650Z,84.33
2023-06-30T06:31:24.669Z,84.37
2023-06-30T06:32:24.616Z,84.37
2023-06-30T06:33:24.593Z,84.33
2023-06-30T06:34:24.588Z,84.27
2023-06-30T06:35:24.562Z,84.37
2023-06-30T06:36:24.559Z,84.33
2023-06-30T06:37:24.543Z,84.33
2023-06-30T06:38:24.529Z,84.43
2023-06-30T06:39:24.514Z,84.43
2023-06-30T06:40:24.501Z,83.83
2023-06-30T06:41:24.488Z,84.33
2023-06-30T06:42:24.540Z,84.33
2023-06-30T06:43:24.475Z,83.62
2023-06-30T06:44:24.495Z,82.88
2023-06-30T06:45:24.451Z,82.58
2023-06-30T06:46:24.471Z,82.28
2023-06-30T06:47:24.474Z,83.48
2023-06-30T06:48:24.476Z,83.45
2023-06-30T06:49:24.417Z,82.24
2023-06-30T06:50:24.411Z,82.24
2023-06-30T06:51:24.384Z,81.99
2023-06-30T06:52:24.369Z,81.49
2023-06-30T06:53:24.356Z,80.55
2023-06-30T06:54:24.369Z,80.61
2023-06-30T06:55:24.332Z,79.57
2023-06-30T06:56:24.326Z,79.57
2023-06-30T06:57:24.325Z,78.86
2023-06-30T06:58:24.322Z,78.22
2023-06-30T06:59:24.328Z,77.19
2023-06-30T07:00:24.277Z,76.98
2023-06-30T07:01:24.326Z,77.25
2023-06-30T07:02:24.302Z,76.15
2023-06-30T07:03:24.325Z,75.95
2023-06-30T07:04:24.247Z,75.84
2023-06-30T07:05:24.232Z,75.24
2023-06-30T07:06:24.208Z,75.74
2023-06-30T07:07:24.252Z,74.64
2023-06-30T07:08:24.191Z,74.64
2023-06-30T07:09:24.204Z,74.34
2023-06-30T07:10:24.171Z,74.10
2023-06-30T07:11:24.158Z,74.40
2023-06-30T07:12:24.142Z,73.30
2023-06-30T07:13:24.152Z,72.36
2023-06-30T07:14:24.162Z,73.00
2023-06-30T07:15:24.140Z,73.16
2023-06-30T07:16:24.136Z,70.49
2023-06-30T07:17:24.132Z,68.73
2023-06-30T07:18:24.180Z,68.49
2023-06-30T07:19:24.077Z,66.53
2023-06-30T07:20:24.054Z,65.80
2023-06-30T07:21:24.071Z,65.34
2023-06-30T07:22:24.042Z,64.91
2023-06-30T07:23:26.613Z,63.89
2023-06-30T07:24:24.841Z,62.66
2023-06-30T07:25:24.007Z,62.34
2023-06-30T07:26:24.009Z,62.34
2023-06-30T07:27:23.986Z,62.10
2023-06-30T07:28:23.985Z,60.91
2023-06-30T07:29:23.990Z,59.92
2023-06-30T07:30:24.060Z,60.69
2023-06-30T07:31:24.030Z,59.99
2023-06-30T07:32:23.970Z,58.20
2023-06-30T07:33:23.913Z,57.93
2023-06-30T07:34:23.901Z,58.65
2023-06-30T07:35:24.032Z,59.98
2023-06-30T07:36:23.879Z,57.92
2023-06-30T07:37:23.879Z,56.95
2023-06-30T07:38:23.866Z,56.55
2023-06-30T07:39:23.856Z,56.75
2023-06-30T07:40:24.579Z,57.47
2023-06-30T07:41:23.862Z,56.98
2023-06-30T07:42:23.812Z,57.28
2023-06-30T07:43:23.805Z,57.07
2023-06-30T07:44:23.810Z,57.07
2023-06-30T07:45:23.795Z,57.00
2023-06-30T07:46:23.823Z,57.37
2023-06-30T07:47:23.855Z,57.30
2023-06-30T07:48:23.966Z,57.50
2023-06-30T07:49:23.738Z,58.70
2023-06-30T07:50:23.769Z,59.17
2023-06-30T07:51:23.720Z,59.79
2023-06-30T07:52:23.702Z,60.36
2023-06-30T07:53:23.710Z,60.36
2023-06-30T07:54:23.695Z,59.77
2023-06-30T07:55:23.676Z,60.66
2023-06-30T07:56:23.657Z,60.56
2023-06-30T07:57:23.648Z,60.76
2023-06-30T07:58:23.641Z,60.76
2023-06-30T07:59:23.684Z,61.09
2023-06-30T08:00:23.640Z,60.96
2023-06-30T08:01:23.637Z,61.16
2023-06-30T08:02:23.770Z,61.46
2023-06-30T08:03:23.818Z,60.76
2023-06-30T08:04:23.856Z,61.58
2023-06-30T08:05:23.657Z,62.08
2023-06-30T08:06:23.548Z,62.21
2023-06-30T08:07:47.996Z,62.91
2023-06-30T08:08:24.529Z,62.51
2023-06-30T08:09:23.520Z,62.54
2023-06-30T08:10:23.583Z,62.34
2023-06-30T08:11:23.525Z,62.31
2023-06-30T08:12:23.484Z,62.84
2023-06-30T08:13:23.472Z,62.84
2023-06-30T08:14:23.478Z,62.12
2023-06-30T08:15:23.482Z,59.92
2023-06-30T08:16:23.468Z,61.99
2023-06-30T08:17:31.557Z,62.05
2023-06-30T08:18:27.951Z,62.26
2023-06-30T08:19:48.460Z,60.86
2023-06-30T08:20:24.803Z,59.94
2023-06-30T08:21:23.511Z,58.81
2023-06-30T08:22:23.380Z,57.32
2023-06-30T08:23:23.371Z,58.22
2023-06-30T08:24:23.359Z,59.38
2023-06-30T08:25:23.385Z,59.05
2023-06-30T08:26:23.342Z,58.30
2023-06-30T08:27:23.332Z,58.62
2023-06-30T08:28:23.323Z,57.21
2023-06-30T08:29:23.304Z,58.27
2023-06-30T08:30:25.314Z,56.34
2023-06-30T08:31:23.318Z,55.81
2023-06-30T08:32:23.309Z,54.69
2023-06-30T08:33:39.123Z,54.20
2023-06-30T08:34:24.266Z,53.08
2023-06-30T08:35:23.248Z,53.08
2023-06-30T08:36:23.234Z,52.19
2023-06-30T08:37:23.270Z,52.09
2023-06-30T08:38:23.206Z,52.17
2023-06-30T08:39:23.193Z,51.89
2023-06-30T08:40:23.184Z,50.93
2023-06-30T08:41:23.194Z,51.65
2023-06-30T08:42:23.183Z,52.22
2023-06-30T08:43:23.174Z,52.19
2023-06-30T08:44:23.156Z,51.72
2023-06-30T08:45:23.167Z,51.03
2023-06-30T08:46:23.215Z,51.40
2023-06-30T08:47:23.184Z,51.18
2023-06-30T08:48:23.099Z,51.18
2023-06-30T08:49:23.125Z,50.66
2023-06-30T08:50:23.131Z,50.93
2023-06-30T08:51:23.076Z,48.73
2023-06-30T08:52:23.088Z,48.31
2023-06-30T08:53:23.061Z,47.50
2023-06-30T08:54:23.047Z,47.20
2023-06-30T08:55:23.049Z,46.11
2023-06-30T08:56:23.031Z,47.10
2023-06-30T08:57:23.019Z,47.18
2023-06-30T08:58:26.527Z,45.89
2023-06-30T08:59:22.993Z,46.04
2023-06-30T09:00:23.012Z,44.76
2023-06-30T09:01:23.133Z,44.06
2023-06-30T09:02:23.118Z,44.43
2023-06-30T09:03:23.091Z,43.62
2023-06-30T09:04:22.937Z,43.60
2023-06-30T09:05:23.026Z,43.57
2023-06-30T09:06:22.956Z,43.28
2023-06-30T09:07:23.048Z,43.18
2023-06-30T09:08:22.897Z,43.46
2023-06-30T09:09:22.889Z,43.06
2023-06-30T09:10:22.874Z,42.28
2023-06-30T09:11:22.881Z,42.75
2023-06-30T09:12:22.872Z,42.53
2023-06-30T09:13:22.854Z,41.55
2023-06-30T09:14:22.841Z,42.53
2023-06-30T09:15:22.858Z,41.55
2023-06-30T09:16:22.886Z,40.86
2023-06-30T09:17:22.885Z,40.74
2023-06-30T09:18:22.812Z,40.55
2023-06-30T09:19:22.794Z,40.33
2023-06-30T09:20:22.830Z,40.82
2023-06-30T09:21:24.420Z,40.13
2023-06-30T09:22:53.032Z,40.03
2023-06-30T09:23:23.787Z,39.14
2023-06-30T09:24:22.757Z,40.01
2023-06-30T09:25:22.771Z,39.25
2023-06-30T09:26:22.728Z,40.43
2023-06-30T09:27:22.714Z,38.93
2023-06-30T09:28:22.707Z,39.25
2023-06-30T09:29:22.771Z,39.45
2023-06-30T09:30:22.682Z,39.64
2023-06-30T09:31:22.790Z,40.23
2023-06-30T09:32:22.744Z,40.23
2023-06-30T09:33:22.654Z,39.23
2023-06-30T09:34:22.653Z,39.15
2023-06-30T09:35:22.656Z,40.11
2023-06-30T09:36:22.631Z,39.72
2023-06-30T09:37:22.610Z,39.23
2023-06-30T09:38:22.657Z,39.23
2023-06-30T09:39:22.630Z,38.84
2023-06-30T09:40:22.594Z,38.23
2023-06-30T09:41:22.605Z,38.04
2023-06-30T09:42:22.564Z,38.43
2023-06-30T09:43:22.600Z,37.35
2023-06-30T09:44:22.564Z,37.17
2023-06-30T09:45:22.551Z,37.19
2023-06-30T09:46:22.589Z,38.93
2023-06-30T09:47:22.552Z,39.15
2023-06-30T09:48:22.504Z,38.46
2023-06-30T09:49:22.497Z,39.03
2023-06-30T09:50:22.511Z,38.64
2023-06-30T09:51:22.498Z,37.46
2023-06-30T09:52:22.472Z,37.94
2023-06-30T09:53:22.456Z,39.01
2023-06-30T09:54:39.310Z,39.70
2023-06-30T09:55:23.438Z,39.01
2023-06-30T09:56:22.424Z,38.93
2023-06-30T09:57:22.417Z,38.23
2023-06-30T09:58:22.422Z,38.80
2023-06-30T09:59:22.416Z,37.84
2023-06-30T10:00:35.694Z,37.33
2023-06-30T10:01:23.448Z,37.43
2023-06-30T10:02:22.385Z,37.63
2023-06-30T10:03:22.509Z,37.43
2023-06-30T10:04:22.365Z,38.02
2023-06-30T10:05:22.349Z,37.63
2023-06-30T10:06:22.349Z,36.68
2023-06-30T10:07:22.342Z,37.96
2023-06-30T10:08:22.305Z,38.85
2023-06-30T10:09:22.307Z,37.78
2023-06-30T10:10:22.307Z,38.93
2023-06-30T10:11:22.280Z,38.64
2023-06-30T10:12:22.269Z,38.15
2023-06-30T10:13:22.291Z,37.86
2023-06-30T10:14:22.279Z,37.66
2023-06-30T10:15:22.234Z,37.37
2023-06-30T10:16:22.241Z,37.15
2023-06-30T10:17:22.259Z,36.68
2023-06-30T10:18:22.229Z,35.99
2023-06-30T10:19:22.224Z,36.30
2023-06-30T10:20:30.594Z,36.80
2023-06-30T10:21:23.178Z,37.60
2023-06-30T10:22:22.202Z,36.82
2023-06-30T10:23:22.269Z,37.32
2023-06-30T10:24:22.181Z,37.05
2023-06-30T10:25:22.177Z,38.15
2023-06-30T10:26:22.257Z,38.72
2023-06-30T10:27:22.117Z,37.65
2023-06-30T10:28:22.133Z,38.84
2023-06-30T10:29:22.111Z,39.31
2023-06-30T10:30:22.112Z,37.15
2023-06-30T10:31:22.081Z,36.55
2023-06-30T10:32:22.192Z,36.26
2023-06-30T10:33:22.104Z,37.74
2023-06-30T10:34:22.085Z,37.74
2023-06-30T10:35:22.044Z,37.93
2023-06-30T10:36:22.078Z,36.95
2023-06-30T10:37:22.025Z,37.74
2023-06-30T10:38:22.015Z,37.63
2023-06-30T10:39:22.007Z,38.62
2023-06-30T10:40:22.020Z,37.63
2023-06-30T10:41:21.983Z,38.32
2023-06-30T10:42:22.048Z,40.39
2023-06-30T10:43:21.962Z,39.21
2023-06-30T10:44:21.991Z,39.01
2023-06-30T10:45:21.946Z,38.11
2023-06-30T10:46:21.995Z,38.80
2023-06-30T10:47:21.931Z,37.92
2023-06-30T10:48:21.949Z,36.26
2023-06-30T10:49:21.923Z,37.65
2023-06-30T10:50:21.912Z,39.05
2023-06-30T10:51:22.002Z,37.67
2023-06-30T10:52:21.882Z,37.67
2023-06-30T10:53:21.879Z,38.64
2023-06-30T10:54:21.911Z,38.34
2023-06-30T10:55:21.849Z,38.84
2023-06-30T10:56:21.870Z,38.85
2023-06-30T10:57:21.821Z,39.32
2023-06-30T10:58:21.850Z,38.07
2023-06-30T10:59:21.825Z,39.23
2023-06-30T11:00:21.803Z,38.76
2023-06-30T11:01:21.805Z,39.76
2023-06-30T11:02:21.795Z,39.37
2023-06-30T11:03:21.838Z,40.16
2023-06-30T11:04:21.964Z,40.17
2023-06-30T11:05:21.803Z,40.17
2023-06-30T11:06:21.765Z,39.18
2023-06-30T11:07:21.761Z,40.29
2023-06-30T11:08:21.732Z,40.58
2023-06-30T11:09:21.746Z,40.98
2023-06-30T11:10:21.710Z,40.39
2023-06-30T11:11:21.697Z,40.09
2023-06-30T11:12:21.678Z,42.65
2023-06-30T11:13:21.666Z,40.19
2023-06-30T11:14:21.674Z,40.29
2023-06-30T11:15:21.672Z,40.80
2023-06-30T11:16:21.661Z,40.11
2023-06-30T11:17:21.721Z,40.51
2023-06-30T11:18:21.679Z,40.31
2023-06-30T11:19:21.629Z,39.01
2023-06-30T11:20:21.617Z,39.79
2023-06-30T11:21:21.580Z,39.03
2023-06-30T11:22:21.577Z,40.19
2023-06-30T11:23:21.574Z,39.32
2023-06-30T11:24:21.586Z,40.01
2023-06-30T11:25:21.560Z,39.32
2023-06-30T11:26:21.537Z,38.93
2023-06-30T11:27:21.533Z,40.21
2023-06-30T11:28:21.515Z,39.23
2023-06-30T11:29:21.542Z,40.31
2023-06-30T11:30:21.518Z,40.33
2023-06-30T11:31:21.732Z,40.03
2023-06-30T11:32:21.491Z,40.13
2023-06-30T11:33:21.480Z,40.13
2023-06-30T11:34:21.467Z,38.65
2023-06-30T11:35:21.444Z,40.23
2023-06-30T11:36:21.425Z,40.33
2023-06-30T11:37:21.411Z,39.94
2023-06-30T11:38:21.433Z,39.44
2023-06-30T11:39:21.413Z,39.03
2023-06-30T11:40:21.399Z,40.41
2023-06-30T11:41:21.386Z,40.21
2023-06-30T11:42:21.381Z,40.78
2023-06-30T11:43:21.355Z,40.58
2023-06-30T11:44:21.384Z,40.19
2023-06-30T11:45:21.339Z,38.83
2023-06-30T11:46:21.430Z,39.42
2023-06-30T11:47:21.380Z,39.84
2023-06-30T11:48:21.313Z,40.62
2023-06-30T11:49:21.285Z,40.13
2023-06-30T11:50:21.641Z,39.34
2023-06-30T11:51:21.280Z,40.45
2023-06-30T11:52:21.336Z,40.74
2023-06-30T11:53:21.250Z,40.84
2023-06-30T11:54:21.245Z,40.43
2023-06-30T11:55:21.273Z,40.35
2023-06-30T11:56:21.219Z,39.36
2023-06-30T11:57:21.198Z,39.95
2023-06-30T11:58:21.204Z,40.25
2023-06-30T11:59:21.186Z,39.97
2023-06-30T12:00:21.236Z,40.66
2023-06-30T12:01:21.544Z,40.76
2023-06-30T12:02:21.225Z,40.56
2023-06-30T12:03:21.177Z,40.27
2023-06-30T12:04:21.216Z,40.47
2023-06-30T12:05:21.181Z,40.09
2023-06-30T12:06:21.145Z,40.69
2023-06-30T12:07:21.154Z,40.76
2023-06-30T12:08:21.091Z,40.39
2023-06-30T12:09:21.076Z,40.48
2023-06-30T12:10:21.120Z,41.38
2023-06-30T12:11:21.072Z,40.69
2023-06-30T12:12:21.056Z,40.58
2023-06-30T12:13:21.034Z,40.41
2023-06-30T12:14:21.035Z,41.02
2023-06-30T12:15:21.032Z,42.43
2023-06-30T12:16:21.057Z,42.22
2023-06-30T12:17:21.044Z,42.22
2023-06-30T12:18:21.006Z,42.43
2023-06-30T12:19:20.966Z,41.36
2023-06-30T12:20:20.995Z,42.13
2023-06-30T12:21:20.948Z,41.85
2023-06-30T12:22:20.940Z,42.44
2023-06-30T12:23:20.922Z,42.27
2023-06-30T12:24:20.931Z,43.06
2023-06-30T12:25:20.934Z,43.26
2023-06-30T12:26:20.940Z,42.68
2023-06-30T12:27:20.897Z,42.68
2023-06-30T12:28:20.888Z,43.08
2023-06-30T12:29:20.873Z,41.99
2023-06-30T12:30:20.854Z,43.60
2023-06-30T12:31:20.925Z,43.20
2023-06-30T12:32:20.966Z,44.09
2023-06-30T12:33:20.832Z,43.40
2023-06-30T12:34:20.857Z,43.67
2023-06-30T12:35:20.802Z,42.58
2023-06-30T12:36:20.835Z,42.98
2023-06-30T12:37:20.795Z,43.35
2023-06-30T12:38:20.797Z,43.26
2023-06-30T12:39:20.771Z,43.43
2023-06-30T12:40:20.752Z,43.53
2023-06-30T12:41:20.791Z,43.61
2023-06-30T12:42:20.752Z,42.32
2023-06-30T12:43:20.722Z,42.62
2023-06-30T12:44:20.842Z,42.62
2023-06-30T12:45:21.542Z,42.13
2023-06-30T12:46:20.742Z,43.29
2023-06-30T12:47:20.746Z,42.99
2023-06-30T12:48:20.675Z,42.21
2023-06-30T12:49:20.654Z,42.38
2023-06-30T12:50:20.820Z,41.79
2023-06-30T12:51:20.730Z,41.02
2023-06-30T12:52:20.621Z,41.30